Osakis, Minnesota
Current Conditions -  °F | °C
As of 5:53 PM on Wednesday 26 Nov 2014 (Local Time) from KAXN Reporting Station
Broken Clouds Broken Clouds  
Wind Chill: -10°   Ceiling: 9000
Heat Index:   Visibility: 10mi
Dew Point: -4°   Wind: 16mph
Humidity: 58%   Direction: 330°NNW
Pressure: 30.35"   Gusts: NA
Location:  45.87°N, 95.15°W
Report Text: KAXN 262353Z AUTO 33014KT 10SM BKN090 M13/M20 A3035 RMK AO2 SLP310 T11331200 11072 21133 51027
Loading
Personal Weather Stations






























Interactive Weather Map New forecast layout! Learn more

10-Day Weather Forecast

Advertisements
Track Severe Weather on mobile